TimeEDT,TemperatureF,Dew PointF,Humidity,Sea Level PressureIn,VisibilityMPH,Wind Direction,Wind SpeedMPH,Gust SpeedMPH,PrecipitationIn,Events,Conditions,WindDirDegrees,DateUTC
12:03 AM,64.0,62.1,93,29.72,10.0,WSW,8.1,-,N/A,,Mostly Cloudy,250,2013-08-14 04:03:00
12:21 AM,64.9,63.0,93,29.72,10.0,WSW,9.2,-,N/A,,Mostly Cloudy,250,2013-08-14 04:21:00
12:31 AM,64.9,63.0,93,29.72,10.0,West,9.2,-,N/A,,Overcast,260,2013-08-14 04:31:00
12:54 AM,64.0,63.0,96,29.71,6.0,West,11.5,-,N/A,,Overcast,270,2013-08-14 04:54:00
1:27 AM,64.0,63.0,96,29.71,10.0,WNW,12.7,-,N/A,,Scattered Clouds,290,2013-08-14 05:27:00
1:54 AM,64.0,62.1,93,29.70,10.0,WNW,17.3,-,N/A,,Mostly Cloudy,290,2013-08-14 05:54:00
2:54 AM,62.1,57.0,84,29.70,10.0,WNW,20.7,-,N/A,,Partly Cloudy,290,2013-08-14 06:54:00
3:54 AM,59.0,55.0,87,29.71,10.0,WNW,17.3,25.3,N/A,,Clear,290,2013-08-14 07:54:00
4:54 AM,57.0,48.0,72,29.72,10.0,WNW,20.7,32.2,N/A,,Clear,290,2013-08-14 08:54:00
5:54 AM,55.9,46.0,69,29.74,10.0,WNW,16.1,-,N/A,,Clear,290,2013-08-14 09:54:00
6:54 AM,55.9,46.9,72,29.76,10.0,West,11.5,-,N/A,,Clear,280,2013-08-14 10:54:00
7:54 AM,57.0,48.0,72,29.76,10.0,West,13.8,-,N/A,,Clear,270,2013-08-14 11:54:00
8:54 AM,60.1,48.9,67,29.77,10.0,WNW,12.7,-,N/A,,Clear,290,2013-08-14 12:54:00
9:54 AM,61.0,48.9,64,29.76,10.0,West,15.0,20.7,N/A,,Partly Cloudy,280,2013-08-14 13:54:00
10:54 AM,63.0,48.9,60,29.77,10.0,West,18.4,29.9,N/A,,Mostly Cloudy,280,2013-08-14 14:54:00
11:54 AM,64.9,48.0,54,29.77,10.0,WNW,24.2,29.9,N/A,,Mostly Cloudy,300,2013-08-14 15:54:00
12:54 PM,66.0,48.0,52,29.78,10.0,West,18.4,27.6,N/A,,Scattered Clouds,280,2013-08-14 16:54:00
1:54 PM,64.9,48.0,54,29.80,10.0,NW,19.6,29.9,N/A,,Overcast,310,2013-08-14 17:54:00
2:54 PM,64.9,50.0,58,29.79,10.0,WNW,11.5,23.0,N/A,,Mostly Cloudy,290,2013-08-14 18:54:00
3:54 PM,66.9,50.0,54,29.81,10.0,NW,17.3,25.3,N/A,,Scattered Clouds,310,2013-08-14 19:54:00
4:54 PM,69.1,48.0,47,29.81,10.0,WNW,18.4,27.6,N/A,,Partly Cloudy,290,2013-08-14 20:54:00
5:54 PM,68.0,50.0,52,29.83,10.0,NW,17.3,24.2,N/A,,Clear,310,2013-08-14 21:54:00
6:54 PM,66.0,52.0,60,29.86,10.0,WNW,12.7,-,N/A,,Clear,290,2013-08-14 22:54:00
7:54 PM,63.0,52.0,67,29.89,10.0,WNW,11.5,20.7,N/A,,Clear,300,2013-08-14 23:54:00
8:54 PM,60.1,52.0,75,29.93,10.0,WNW,5.8,-,N/A,,Clear,300,2013-08-15 00:54:00
9:54 PM,57.9,51.1,78,29.97,10.0,WNW,6.9,-,N/A,,Clear,290,2013-08-15 01:54:00
10:54 PM,57.0,51.1,81,29.98,10.0,WNW,8.1,-,N/A,,Clear,300,2013-08-15 02:54:00
11:54 PM,55.9,51.1,84,30.00,10.0,WNW,10.4,-,N/A,,Clear,290,2013-08-15 03:54:00